Cazorla, Spain
Current Conditions -  °F | °C
As of 5:00 PM on Monday 22 Dec 2014 (Local Time) from LEGR Reporting Station
Clear Clear  
Wind Chill: 59°   Ceiling: Unl
Heat Index: 59°   Visibility: 6mi
Dew Point: 45°   Wind: 3mph
Humidity: 59%   Direction: 130°SE
Pressure: 30.36"   Gusts: NA
Location:  37.91°N, 3°W
Report Text: LEGR 221600Z 13003KT 100V160 CAVOK 15/07 Q1028
Loading
Personal Weather Stations






























Interactive Weather Map New forecast layout! Learn more

10-Day Weather Forecast

Advertisements
Track Severe Weather on mobile